Mt Bomar Mars — 9HCM9 — position and weather

sailwx.info

Track history (hours):
 
Tides and Currents Weather Stations Pressure Air Temp Water Temp Dewpoint Dewpoint Depression Visibility Wind Speed Wind Dir Waves Ship Positions

Mt Bomar Mars

Last reported at 2016-May-27 23:33 UTC. Time now 2016-May-28 00:00 UTC.
Position N 46°05' W 001°15'.

Length 107 m; draft 6.7 m.

Type: Ship. MMSI: 256784000.

Date/timePositionNaut miles runAvg speedWind from/ knotsBaromVisibWave heightAir tempDewpointWater temp
2016-May-27 23:33N 46°05' W 001°15'0 0.0
2016-May-27 22:33N 46°05' W 001°15'0 0.1
2016-May-27 21:33N 46°05' W 001°15'0 0.0
2016-May-27 20:33N 46°05' W 001°15'0 0.1
2016-May-27 19:33N 46°05' W 001°15'0 0.0
2016-May-27 18:33N 46°05' W 001°15'0 0.0
2016-May-27 17:33N 46°05' W 001°15'0 0.0
2016-May-27 16:30N 46°05' W 001°15'0 0.0
2016-May-27 15:30N 46°05' W 001°15'0 0.0
2016-May-27 14:33N 46°05' W 001°15'0 0.1
2016-May-27 13:30N 46°05' W 001°15'0 0.1
2016-May-27 12:33N 46°05' W 001°15'0 0.0
2016-May-27 11:30N 46°05' W 001°15'0 0.0
2016-May-27 10:33N 46°05' W 001°15'0 0.0
2016-May-27 09:33N 46°05' W 001°15'0 0.0
2016-May-27 08:33N 46°05' W 001°15'0 0.1
2016-May-27 07:33N 46°05' W 001°15'0 0.0
2016-May-27 06:33N 46°05' W 001°15'0 0.0
2016-May-27 05:33N 46°05' W 001°15'0 0.0
2016-May-27 04:33N 46°05' W 001°15'0 0.0
2016-May-27 03:33N 46°05' W 001°15'0 0.0
2016-May-27 02:33N 46°05' W 001°15'0 0.0
2016-May-27 01:33N 46°05' W 001°15'0 0.1
2016-May-27 00:33N 46°05' W 001°15'0 0.0
2016-May-26 23:33N 46°05' W 001°15'0 0.1
2016-May-26 22:30N 46°05' W 001°15'0 0.0
2016-May-26 21:33N 46°05' W 001°15'0 0.1
2016-May-26 20:33N 46°05' W 001°15'0 0.0
2016-May-26 19:33N 46°05' W 001°15'4 3.9
2016-May-26 18:33N 46°06' W 001°20'1111.1
2016-May-26 17:33N 46°07' W 001°36'1111.1
2016-May-26 16:33N 46°12' W 001°51'1211.7
2016-May-26 15:34N 46°19' W 002°04'1211.5
2016-May-26 14:33N 46°26' W 002°18'1111.3
2016-May-26 13:32N 46°32' W 002°31'1211.3
2016-May-26 12:28N 46°39' W 002°46'910.5
2016-May-26 11:33N 46°44' W 002°58'1210.9
2016-May-26 10:30N 46°50' W 003°12'1010.8
2016-May-26 09:33N 46°56' W 003°24'1110.9
2016-May-26 08:34N 47°03' W 003°37'1111.1
2016-May-26 07:33N 47°09' W 003°51'4611.2
2016-May-26 03:24N 47°35' W 004°47'910.6
2016-May-26 02:34N 47°40' W 004°58'1110.7
2016-May-26 01:33N 47°47' W 005°11'1110.6
2016-May-26 00:33N 47°55' W 005°21'1111.2
2016-May-25 23:33N 48°04' W 005°30'1111.5
2016-May-25 22:34N 48°14' W 005°38'123 9.3
2016-May-25 09:21N 49°46' W 003°32'810.1
2016-May-25 08:33N 49°49' W 003°21'1010.0
2016-May-25 07:33N 49°55' W 003°08'1010.5
2016-May-25 06:33N 49°60' W 002°54'9712.1
2016-May-24 22:29N 50°26' W 000°28'9 9.1
2016-May-24 21:29N 50°29' W 000°14'910.0
2016-May-24 20:33N 50°31' W 000°00'1111.1
2016-May-24 19:33N 50°35' E 000°17'3712.3
2016-May-24 16:33N 50°53' E 001°07'1111.0
2016-May-24 15:33N 51°00' E 001°20'10 9.7
2016-May-24 14:34N 51°07' E 001°32'9 9.1
2016-May-24 13:33N 51°12' E 001°43'10 9.8
2016-May-24 12:33N 51°20' E 001°53'9 8.9
2016-May-24 11:33N 51°23' E 002°06'1110.8
2016-May-24 10:32N 51°22' E 002°23'1111.6
2016-May-24 09:33N 51°22' E 002°42'1111.5
2016-May-24 08:33N 51°24' E 002°60'1312.5
2016-May-24 07:33N 51°24' E 003°20'1010.3
2016-May-24 06:33N 51°27' E 003°36'0 0.0
2016-May-24 05:33N 51°27' E 003°36'0 0.0
2016-May-24 04:33N 51°27' E 003°36'0 0.0
2016-May-24 03:33N 51°27' E 003°36'0 0.0
2016-May-24 02:33N 51°27' E 003°36'0 0.0
2016-May-24 01:33N 51°27' E 003°36'0 0.0
2016-May-24 00:30N 51°27' E 003°36'0 0.0
2016-May-23 23:33N 51°27' E 003°36'0 0.0
2016-May-23 22:33N 51°27' E 003°36'0 0.0
2016-May-23 21:33N 51°27' E 003°36'0 0.0
2016-May-23 20:33N 51°27' E 003°36'0 0.0
2016-May-23 19:33N 51°27' E 003°36'0 0.0
2016-May-23 18:33N 51°27' E 003°36'0 0.0
2016-May-23 17:33N 51°27' E 003°36'0 0.0
2016-May-23 16:33N 51°27' E 003°36'0 0.0
2016-May-23 15:33N 51°27' E 003°36'0 0.0
2016-May-23 14:33N 51°27' E 003°36'0 0.0
2016-May-23 13:33N 51°27' E 003°36'0 0.0
2016-May-23 12:33N 51°27' E 003°36'3 3.3
2016-May-23 11:33N 51°28' E 003°31'1312.2
2016-May-23 10:30N 51°38' E 003°19'9 0.5
2016-May-22 17:32N 51°48' E 003°17'1211.5
2016-May-22 16:30N 51°50' E 002°58'30 3.3
2016-May-22 07:32N 52°07' E 003°37'1111.3
2016-May-22 06:34N 52°02' E 003°54'1211.5
2016-May-22 05:33N 51°57' E 004°10'8 6.1
2016-May-22 04:19N 51°54' E 004°22'0 0.0
2016-May-22 03:32N 51°54' E 004°22'0 0.0
2016-May-22 02:26N 51°54' E 004°22'0 0.0
2016-May-22 01:32N 51°54' E 004°22'0 0.0
2016-May-22 00:29N 51°54' E 004°22'0 0.0
2016-May-21 23:20N 51°54' E 004°22'0 0.0
2016-May-21 22:32N 51°54' E 004°22'0 0.0
2016-May-21 21:32N 51°54' E 004°22'0 0.0
2016-May-21 20:32N 51°54' E 004°22'0 0.0
2016-May-21 19:32N 51°54' E 004°22'0 0.0
2016-May-21 18:17N 51°54' E 004°22'0 0.0
2016-May-21 17:32N 51°54' E 004°22'0 0.0
2016-May-21 16:26N 51°54' E 004°22'0 0.0
2016-May-21 15:23N 51°54' E 004°22'0 0.0
2016-May-21 14:32N 51°54' E 004°22'0 0.0
2016-May-21 13:32N 51°54' E 004°22'0 0.0
2016-May-21 12:11N 51°54' E 004°22'0 0.0
2016-May-21 11:26N 51°54' E 004°22'0 0.0
2016-May-21 10:20N 51°54' E 004°22'0 0.0
2016-May-21 09:26N 51°54' E 004°22'0 0.0
2016-May-21 08:32N 51°54' E 004°22'0 0.0
2016-May-21 07:26N 51°54' E 004°22'0 0.0
2016-May-21 06:26N 51°54' E 004°22'0 0.0
2016-May-21 05:20N 51°54' E 004°22'0 0.0
2016-May-21 04:32N 51°54' E 004°22'0 0.0
2016-May-21 03:20N 51°54' E 004°22'0 0.0
2016-May-21 02:26N 51°54' E 004°22'0 0.0
2016-May-21 01:32N 51°54' E 004°22'0 0.0
2016-May-21 00:32N 51°54' E 004°22'2 2.2
2016-May-20 23:34N 51°54' E 004°18'9 9.3
2016-May-20 22:33N 51°59' E 004°06'9 9.3
2016-May-20 21:34N 51°59' E 003°50'4 1.4
2016-May-20 18:26N 51°57' E 003°44'0 0.0
2016-May-20 17:32N 51°57' E 003°44'0 0.0
2016-May-20 16:32N 51°57' E 003°44'0 0.0
2016-May-20 15:32N 51°57' E 003°44'0 0.0
2016-May-20 14:26N 51°57' E 003°44'0 0.0
2016-May-20 12:32N 51°57' E 003°44'0 0.0
2016-May-20 11:26N 51°57' E 003°44'0 0.0
2016-May-20 10:32N 51°57' E 003°44'0 0.1
2016-May-20 09:33N 51°57' E 003°44'0 0.0
2016-May-20 08:32N 51°57' E 003°44'2 2.0
2016-May-20 07:33N 51°57' E 003°41'5 5.2
2016-May-20 06:32N 51°57' E 003°33'53 8.8
2016-May-20 00:32N 51°31' E 002°18'1313.1
2016-May-19 23:33N 51°19' E 002°08'1312.8
2016-May-19 22:33N 51°10' E 001°54'1413.7
2016-May-19 21:33N 51°01' E 001°38'1312.7
2016-May-19 20:30N 50°50' E 001°26'1111.5
2016-May-19 19:33N 50°40' E 001°19'3711.1
2016-May-19 16:13N 50°23' E 000°27'710.6
2016-May-19 15:33N 50°21' E 000°16'1010.1
2016-May-19 14:33N 50°19' E 000°01'10 9.8
2016-May-19 13:33N 50°16' W 000°14'9 9.4
2016-May-19 12:33N 50°14' W 000°28'9 9.4
2016-May-19 11:33N 50°11' W 000°42'10 9.9
2016-May-19 10:33N 50°09' W 000°57'1311.0
2016-May-19 09:21N 50°05' W 001°17'1112.4
2016-May-19 08:25N 50°02' W 001°35'1213.4
2016-May-19 07:33N 49°59' W 001°52'1513.9
2016-May-19 06:30N 49°55' W 002°14'1313.6
2016-May-19 05:34N 49°52' W 002°33'1312.9
2016-May-19 04:33N 49°49' W 002°52'1312.3
2016-May-19 03:29N 49°42' W 003°10'133 8.9
2016-May-18 12:33N 48°08' W 005°33'  
Track history (hours):
 
Tides and Currents Weather Stations Pressure Air Temp Water Temp Dewpoint Dewpoint Depression Visibility Wind Speed Wind Dir Waves Ship Positions

Mt Bomar Mars

Last reported at 2016-May-27 23:33 UTC. Time now 2016-May-28 00:01 UTC.
Position N 46°05' W 001°15'.

Length 107 m; draft 6.7 m.

Type: Ship. MMSI: 256784000.

Date/timePositionNaut miles runAvg speedWind from/ knotsBaromVisibWave heightAir tempDewpointWater temp
2016-May-27 23:33N 46°05' W 001°15'0 0.0
2016-May-27 22:33N 46°05' W 001°15'0 0.1
2016-May-27 21:33N 46°05' W 001°15'0 0.0
2016-May-27 20:33N 46°05' W 001°15'0 0.1
2016-May-27 19:33N 46°05' W 001°15'0 0.0
2016-May-27 18:33N 46°05' W 001°15'0 0.0
2016-May-27 17:33N 46°05' W 001°15'0 0.0
2016-May-27 16:30N 46°05' W 001°15'0 0.0
2016-May-27 15:30N 46°05' W 001°15'0 0.0
2016-May-27 14:33N 46°05' W 001°15'0 0.1
2016-May-27 13:30N 46°05' W 001°15'0 0.1
2016-May-27 12:33N 46°05' W 001°15'0 0.0
2016-May-27 11:30N 46°05' W 001°15'0 0.0
2016-May-27 10:33N 46°05' W 001°15'0 0.0
2016-May-27 09:33N 46°05' W 001°15'0 0.0
2016-May-27 08:33N 46°05' W 001°15'0 0.1
2016-May-27 07:33N 46°05' W 001°15'0 0.0
2016-May-27 06:33N 46°05' W 001°15'0 0.0
2016-May-27 05:33N 46°05' W 001°15'0 0.0
2016-May-27 04:33N 46°05' W 001°15'0 0.0
2016-May-27 03:33N 46°05' W 001°15'0 0.0
2016-May-27 02:33N 46°05' W 001°15'0 0.0
2016-May-27 01:33N 46°05' W 001°15'0 0.1
2016-May-27 00:33N 46°05' W 001°15'0 0.0
2016-May-26 23:33N 46°05' W 001°15'0 0.1
2016-May-26 22:30N 46°05' W 001°15'0 0.0
2016-May-26 21:33N 46°05' W 001°15'0 0.1
2016-May-26 20:33N 46°05' W 001°15'0 0.0
2016-May-26 19:33N 46°05' W 001°15'4 3.9
2016-May-26 18:33N 46°06' W 001°20'1111.1
2016-May-26 17:33N 46°07' W 001°36'1111.1
2016-May-26 16:33N 46°12' W 001°51'1211.7
2016-May-26 15:34N 46°19' W 002°04'1211.5
2016-May-26 14:33N 46°26' W 002°18'1111.3
2016-May-26 13:32N 46°32' W 002°31'1211.3
2016-May-26 12:28N 46°39' W 002°46'910.5
2016-May-26 11:33N 46°44' W 002°58'1210.9
2016-May-26 10:30N 46°50' W 003°12'1010.8
2016-May-26 09:33N 46°56' W 003°24'1110.9
2016-May-26 08:34N 47°03' W 003°37'1111.1
2016-May-26 07:33N 47°09' W 003°51'4611.2
2016-May-26 03:24N 47°35' W 004°47'910.6
2016-May-26 02:34N 47°40' W 004°58'1110.7
2016-May-26 01:33N 47°47' W 005°11'1110.6
2016-May-26 00:33N 47°55' W 005°21'1111.2
2016-May-25 23:33N 48°04' W 005°30'1111.5
2016-May-25 22:34N 48°14' W 005°38'123 9.3
2016-May-25 09:21N 49°46' W 003°32'810.1
2016-May-25 08:33N 49°49' W 003°21'1010.0
2016-May-25 07:33N 49°55' W 003°08'1010.5
2016-May-25 06:33N 49°60' W 002°54'9712.1
2016-May-24 22:29N 50°26' W 000°28'9 9.1
2016-May-24 21:29N 50°29' W 000°14'910.0
2016-May-24 20:33N 50°31' W 000°00'1111.1
2016-May-24 19:33N 50°35' E 000°17'3712.3
2016-May-24 16:33N 50°53' E 001°07'1111.0
2016-May-24 15:33N 51°00' E 001°20'10 9.7
2016-May-24 14:34N 51°07' E 001°32'9 9.1
2016-May-24 13:33N 51°12' E 001°43'10 9.8
2016-May-24 12:33N 51°20' E 001°53'9 8.9
2016-May-24 11:33N 51°23' E 002°06'1110.8
2016-May-24 10:32N 51°22' E 002°23'1111.6
2016-May-24 09:33N 51°22' E 002°42'1111.5
2016-May-24 08:33N 51°24' E 002°60'1312.5
2016-May-24 07:33N 51°24' E 003°20'1010.3
2016-May-24 06:33N 51°27' E 003°36'0 0.0
2016-May-24 05:33N 51°27' E 003°36'0 0.0
2016-May-24 04:33N 51°27' E 003°36'0 0.0
2016-May-24 03:33N 51°27' E 003°36'0 0.0
2016-May-24 02:33N 51°27' E 003°36'0 0.0
2016-May-24 01:33N 51°27' E 003°36'0 0.0
2016-May-24 00:30N 51°27' E 003°36'0 0.0
2016-May-23 23:33N 51°27' E 003°36'0 0.0
2016-May-23 22:33N 51°27' E 003°36'0 0.0
2016-May-23 21:33N 51°27' E 003°36'0 0.0
2016-May-23 20:33N 51°27' E 003°36'0 0.0
2016-May-23 19:33N 51°27' E 003°36'0 0.0
2016-May-23 18:33N 51°27' E 003°36'0 0.0
2016-May-23 17:33N 51°27' E 003°36'0 0.0
2016-May-23 16:33N 51°27' E 003°36'0 0.0
2016-May-23 15:33N 51°27' E 003°36'0 0.0
2016-May-23 14:33N 51°27' E 003°36'0 0.0
2016-May-23 13:33N 51°27' E 003°36'0 0.0
2016-May-23 12:33N 51°27' E 003°36'3 3.3
2016-May-23 11:33N 51°28' E 003°31'1312.2
2016-May-23 10:30N 51°38' E 003°19'9 0.5
2016-May-22 17:32N 51°48' E 003°17'1211.5
2016-May-22 16:30N 51°50' E 002°58'30 3.3
2016-May-22 07:32N 52°07' E 003°37'1111.3
2016-May-22 06:34N 52°02' E 003°54'1211.5
2016-May-22 05:33N 51°57' E 004°10'8 6.1
2016-May-22 04:19N 51°54' E 004°22'0 0.0
2016-May-22 03:32N 51°54' E 004°22'0 0.0
2016-May-22 02:26N 51°54' E 004°22'0 0.0
2016-May-22 01:32N 51°54' E 004°22'0 0.0
2016-May-22 00:29N 51°54' E 004°22'0 0.0
2016-May-21 23:20N 51°54' E 004°22'0 0.0
2016-May-21 22:32N 51°54' E 004°22'0 0.0
2016-May-21 21:32N 51°54' E 004°22'0 0.0
2016-May-21 20:32N 51°54' E 004°22'0 0.0
2016-May-21 19:32N 51°54' E 004°22'0 0.0
2016-May-21 18:17N 51°54' E 004°22'0 0.0
2016-May-21 17:32N 51°54' E 004°22'0 0.0
2016-May-21 16:26N 51°54' E 004°22'0 0.0
2016-May-21 15:23N 51°54' E 004°22'0 0.0
2016-May-21 14:32N 51°54' E 004°22'0 0.0
2016-May-21 13:32N 51°54' E 004°22'0 0.0
2016-May-21 12:11N 51°54' E 004°22'0 0.0
2016-May-21 11:26N 51°54' E 004°22'0 0.0
2016-May-21 10:20N 51°54' E 004°22'0 0.0
2016-May-21 09:26N 51°54' E 004°22'0 0.0
2016-May-21 08:32N 51°54' E 004°22'0 0.0
2016-May-21 07:26N 51°54' E 004°22'0 0.0
2016-May-21 06:26N 51°54' E 004°22'0 0.0
2016-May-21 05:20N 51°54' E 004°22'0 0.0
2016-May-21 04:32N 51°54' E 004°22'0 0.0
2016-May-21 03:20N 51°54' E 004°22'0 0.0
2016-May-21 02:26N 51°54' E 004°22'0 0.0
2016-May-21 01:32N 51°54' E 004°22'0 0.0
2016-May-21 00:32N 51°54' E 004°22'2 2.2
2016-May-20 23:34N 51°54' E 004°18'9 9.3
2016-May-20 22:33N 51°59' E 004°06'9 9.3
2016-May-20 21:34N 51°59' E 003°50'4 1.4
2016-May-20 18:26N 51°57' E 003°44'0 0.0
2016-May-20 17:32N 51°57' E 003°44'0 0.0
2016-May-20 16:32N 51°57' E 003°44'0 0.0
2016-May-20 15:32N 51°57' E 003°44'0 0.0
2016-May-20 14:26N 51°57' E 003°44'0 0.0
2016-May-20 12:32N 51°57' E 003°44'0 0.0
2016-May-20 11:26N 51°57' E 003°44'0 0.0
2016-May-20 10:32N 51°57' E 003°44'0 0.1
2016-May-20 09:33N 51°57' E 003°44'0 0.0
2016-May-20 08:32N 51°57' E 003°44'2 2.0
2016-May-20 07:33N 51°57' E 003°41'5 5.2
2016-May-20 06:32N 51°57' E 003°33'53 8.8
2016-May-20 00:32N 51°31' E 002°18'1313.1
2016-May-19 23:33N 51°19' E 002°08'1312.8
2016-May-19 22:33N 51°10' E 001°54'1413.7
2016-May-19 21:33N 51°01' E 001°38'1312.7
2016-May-19 20:30N 50°50' E 001°26'1111.5
2016-May-19 19:33N 50°40' E 001°19'3711.1
2016-May-19 16:13N 50°23' E 000°27'710.6
2016-May-19 15:33N 50°21' E 000°16'1010.1
2016-May-19 14:33N 50°19' E 000°01'10 9.8
2016-May-19 13:33N 50°16' W 000°14'9 9.4
2016-May-19 12:33N 50°14' W 000°28'9 9.4
2016-May-19 11:33N 50°11' W 000°42'10 9.9
2016-May-19 10:33N 50°09' W 000°57'1311.0
2016-May-19 09:21N 50°05' W 001°17'1112.4
2016-May-19 08:25N 50°02' W 001°35'1213.4
2016-May-19 07:33N 49°59' W 001°52'1513.9
2016-May-19 06:30N 49°55' W 002°14'1313.6
2016-May-19 05:34N 49°52' W 002°33'1312.9
2016-May-19 04:33N 49°49' W 002°52'1312.3
2016-May-19 03:29N 49°42' W 003°10'133 8.9
2016-May-18 12:33N 48°08' W 005°33'  

Dump ship's entire track history